METAR Data
IDs: Format: Raw Decoded Include TAF

Data at: 2105 UTC 10 May 2021

KVTP 102055Z AUTO 24009G17KT 080V310 M1/4SM -SN OVC001 00/M01 A3005 RMK AO2
KVTP 102035Z AUTO 21005KT M1/4SM -SN OVC001 00/00 A3005 RMK AO2
KVTP 102015Z AUTO 00000KT M1/4SM +SN OVC001 00/00 A3006 RMK AO2
KVTP 101955Z AUTO 06006KT M1/4SM FG OVC001 01/M01 A3005 RMK AO2
KVTP 101935Z AUTO 15003KT 4SM HZ SCT001 SCT060 BKN075 05/M02 A3005 RMK AO2
KVTP 101915Z AUTO 27006KT 200V020 M1/4SM HZ BKN001 OVC042 02/M01 A3005 RMK AO2
KVTP 101855Z AUTO 25009G23KT 10SM SCT055 OVC070 07/M08 A3005 RMK AO2
KVTP 101835Z AUTO 24010G22KT 210V270 10SM SCT055 BKN070 OVC080 07/M08 A3005 RMK AO2
KVTP 101815Z AUTO 24009G15KT 210V280 10SM BKN065 BKN070 BKN080 07/M06 A3006 RMK AO2
KVTP 101755Z AUTO 25008G16KT 220V280 10SM SCT018 SCT033 BKN050 05/M04 A3006 RMK AO2
KVTP 101735Z AUTO 24012G21KT 2SM -SN BKN016 BKN028 OVC045 02/M03 A3006 RMK AO2 VIS 1 1/4V5
KVTP 101715Z AUTO 22011G22KT 10SM SCT039 BKN049 OVC095 06/M05 A3007 RMK AO2
KVTP 101655Z AUTO 22011G20KT 10SM SCT043 BKN049 BKN065 05/M04 A3007 RMK AO2
KVTP 101635Z AUTO 23007G19KT 10SM SCT034 SCT048 SCT055 04/M04 A3008 RMK AO2
KVTP 101615Z AUTO 23009G20KT 10SM SCT032 SCT042 SCT048 03/M02 A3008 RMK AO2
KVTP 101555Z AUTO 23009G16KT 10SM SCT017 SCT029 BKN050 03/M01 A3008 RMK AO2
KVTP 101535Z AUTO 23006KT 10SM SCT017 SCT030 BKN050 01/00 A3009 RMK AO2
KVTP 101515Z AUTO 25007KT 10SM SCT015 SCT030 SCT039 01/00 A3009 RMK AO2
KVTP 101455Z AUTO 24008KT 200V280 10SM SCT015 SCT022 00/00 A3009 RMK AO2
KVTP 101435Z AUTO 23007KT 190V250 10SM SCT013 SCT024 SCT035 00/00 A3010 RMK AO2
KVTP 101415Z AUTO 24009KT 10SM SCT011 SCT024 SCT042 00/00 A3011 RMK AO2
KVTP 101355Z AUTO 24006KT 10SM SCT010 BKN024 BKN043 00/00 A3011 RMK AO2
KVTP 101335Z AUTO 24005KT 10SM SCT012 BKN055 OVC085 00/00 A3011 RMK AO2
KVTP 101315Z AUTO 25005KT 10SM OVC060 00/00 A3011 RMK AO2
KVTP 101255Z AUTO 24006KT 10SM SCT007 BKN050 OVC060 M01/M01 A3011 RMK AO2
KVTP 101235Z AUTO 24004KT 1SM -SN BKN001 BKN014 OVC032 M02/M02 A3011 RMK AO2 VIS 1/4V5
KVTP 101215Z AUTO 00000KT 3SM BR SCT001 BKN016 OVC060 M02/M02 A3011 RMK AO2
KVTP 101155Z AUTO 00000KT 1/4SM -SN BKN001 OVC020 M03/M03 A3012 RMK AO2 P0002
KVTP 101135Z AUTO 00000KT 1 3/4SM -SN SCT012 BKN022 OVC039 M01/M01 A3011 RMK AO2 P0001
KVTP 101115Z AUTO 25004KT 3SM -SN SCT012 BKN034 OVC070 M01/M01 A3011 RMK AO2
KVTP 101055Z AUTO 25003KT 10SM SCT034 SCT050 OVC075 M01/M01 A3011 RMK AO2
KVTP 101035Z AUTO 00000KT 10SM SCT075 OVC085 A3012 RMK AO2
KVTP 101015Z AUTO 00000KT 10SM BKN070 OVC080 A3012 RMK AO2
KVTP 100955Z AUTO 00000KT 10SM OVC070 A3012 RMK AO2
KVTP 100935Z AUTO 06003KT 10SM BKN070 A3011 RMK AO2
KVTP 100915Z AUTO 05003KT 10SM OVC070 A3011 RMK AO2
KVTP 100855Z AUTO 00000KT 10SM SCT044 OVC075 A3012 RMK AO2
KVTP 100835Z AUTO 00000KT 1 3/4SM BR SCT022 BKN044 OVC075 A3012 RMK AO2 VIS 1/2V5
KVTP 100815Z AUTO 25003KT 10SM SCT035 SCT046 BKN090 A3012 RMK AO2
KVTP 100755Z AUTO 25003KT 2 1/2SM BR SCT001 SCT009 BKN021 A3012 RMK AO2 VIS 3/4V5
KVTP 100735Z AUTO 00000KT 1/4SM -SN OVC001 A3013 RMK AO2
KVTP 100715Z AUTO 00000KT M1/4SM +SN OVC001 A3014 RMK AO2
KVTP 100655Z AUTO 08005KT M1/4SM +SN OVC001 A3014 RMK AO2
KVTP 100635Z AUTO 08006KT M1/4SM +SN OVC001 A3014 RMK AO2
KVTP 100615Z AUTO 08006KT M1/4SM +SN OVC001 A3014 RMK AO2
KVTP 100555Z AUTO 09005KT M1/4SM +SN OVC001 A3013 RMK AO2
KVTP 100535Z AUTO 09005KT M1/4SM +SN OVC001 A3013 RMK AO2
KVTP 100515Z AUTO 09006KT M1/4SM +SN OVC001 A3013 RMK AO2
KVTP 100455Z AUTO 09006KT M1/4SM +SN OVC001 A3014 RMK AO2
KVTP 100435Z AUTO 08006KT M1/4SM +SN OVC001 A3014 RMK AO2
KVTP 100415Z AUTO 08007KT M1/4SM +SN OVC001 A3015 RMK AO2
KVTP 100355Z AUTO 08007KT M1/4SM +SN OVC001 A3014 RMK AO2
KVTP 100335Z AUTO 07006KT M1/4SM +SN OVC001 A3014 RMK AO2
KVTP 100315Z AUTO 07004KT M1/4SM +SN OVC001 A3013 RMK AO2
KVTP 100255Z AUTO 08003KT M1/4SM SN OVC001 A3013 RMK AO2
KVTP 100235Z AUTO 08006KT M1/4SM +SN OVC001 A3012 RMK AO2
KVTP 100215Z AUTO 08006KT M1/4SM SN OVC001 A3012 RMK AO2
KVTP 100155Z AUTO 09004KT M1/4SM +SN OVC001 A3012 RMK AO2
KVTP 100135Z AUTO 08005KT M1/4SM +SN OVC001 A3011 RMK AO2
KVTP 100115Z AUTO 07008KT M1/4SM +SN OVC001 A3011 RMK AO2
KVTP 100055Z AUTO 08004KT M1/4SM +SN OVC001 A3011 RMK AO2
KVTP 100035Z AUTO 07009KT M1/4SM +SN OVC001 A3010 RMK AO2
KVTP 100015Z AUTO 08007KT M1/4SM +SN OVC001 A3010 RMK AO2
KVTP 092355Z AUTO 07008KT M1/4SM +SN OVC001 A3010 RMK AO2
KVTP 092335Z AUTO 08006KT M1/4SM +SN OVC001 A3010 RMK AO2
KVTP 092315Z AUTO 08006KT M1/4SM +SN OVC001 A3010 RMK AO2
KVTP 092255Z AUTO 08008KT M1/4SM +SN OVC001 A3009 RMK AO2
KVTP 092235Z AUTO 08007KT M1/4SM +SN OVC001 A3010 RMK AO2
KVTP 092215Z AUTO 08008G15KT M1/4SM +SN OVC001 A3009 RMK AO2
KVTP 092155Z AUTO 08008KT M1/4SM +SN OVC001 A3009 RMK AO2
KVTP 092135Z AUTO 08009KT M1/4SM +SN OVC001 A3010 RMK AO2
KVTP 092115Z AUTO 08007G16KT M1/4SM +SN OVC001 A3009 RMK AO2
KVTP 092055Z AUTO 07007KT M1/4SM +SN OVC001 A3009 RMK AO2
KVTP 092035Z AUTO 08006KT M1/4SM +SN OVC001 M02/M02 A3009 RMK AO2
KVTP 092015Z AUTO 08007KT M1/4SM +SN OVC001 M02/M03 A3009 RMK AO2
KVTP 091955Z AUTO 09005G18KT M1/4SM +SN OVC001 M02/M03 A3009 RMK AO2
KVTP 091935Z AUTO 08006KT M1/4SM +SN OVC001 M02/M02 A3009 RMK AO2
KVTP 091915Z AUTO 08006KT M1/4SM +SN OVC001 M02/M02 A3010 RMK AO2
KVTP 091855Z AUTO 08007KT M1/4SM +SN OVC001 M02/M02 A3010 RMK AO2
KVTP 091835Z AUTO 08007KT M1/4SM +SN OVC001 M02/M02 A3011 RMK AO2
KVTP 091815Z AUTO 09006KT M1/4SM +SN OVC001 M02/M03 A3012 RMK AO2
KVTP 091755Z AUTO 07008KT M1/4SM +SN OVC001 M03/M03 A3012 RMK AO2
KVTP 091735Z AUTO 08008KT M1/4SM +SN OVC001 M02/M02 A3012 RMK AO2
KVTP 091715Z AUTO 09008KT M1/4SM +SN OVC001 M03/M03 A3014 RMK AO2
KVTP 091655Z AUTO 08007KT M1/4SM +SN OVC001 M03/M03 A3013 RMK AO2
KVTP 091635Z AUTO 08007KT M1/4SM +SN OVC001 M03/M03 A3014 RMK AO2
KVTP 091615Z AUTO 07008KT M1/4SM +SN OVC001 M03/M03 A3013 RMK AO2
KVTP 091555Z AUTO 08006KT M1/4SM +SN OVC001 M03/M03 A3013 RMK AO2
KVTP 091535Z AUTO 08007KT M1/4SM +SN OVC001 M03/M03 A3013 RMK AO2
KVTP 091515Z AUTO 08008KT M1/4SM +SN OVC001 M02/M03 A3014 RMK AO2
KVTP 091455Z AUTO 08006KT M1/4SM +SN OVC001 M02/M02 A3014 RMK AO2
KVTP 091435Z AUTO 09007KT M1/4SM +SN OVC001 M01/M01 A3014 RMK AO2
KVTP 091415Z AUTO 09007KT M1/4SM +SN OVC001 M01/M01 A3014 RMK AO2
KVTP 091355Z AUTO 09007KT M1/4SM SN OVC001 M01/M01 A3014 RMK AO2
KVTP 091335Z AUTO 09005KT M1/4SM SN OVC001 M01/M01 A3014 RMK AO2
KVTP 091315Z AUTO 09006KT M1/4SM SN OVC001 M01/M01 A3013 RMK AO2
KVTP 091255Z AUTO 09007KT M1/4SM -SN OVC001 M01/M01 A3013 RMK AO2
KVTP 091235Z AUTO 09006KT M1/4SM +SN OVC001 M01/M01 A3012 RMK AO2
KVTP 091215Z AUTO 09007KT M1/4SM SN OVC001 M01/M01 A3012 RMK AO2
KVTP 091155Z AUTO 10006KT M1/4SM -SN OVC001 M01/M01 A3012 RMK AO2
KVTP 091135Z AUTO 10008KT M1/4SM -SN OVC001 M01/M01 A3012 RMK AO2
KVTP 091115Z AUTO 10006KT M1/4SM FZFG OVC001 M01/M01 A3011 RMK AO2
KVTP 091055Z AUTO 10008KT M1/4SM FZFG OVC001 M01/M01 A3011 RMK AO2
KVTP 091035Z AUTO 10008KT M1/4SM FZFG OVC001 M01/M01 A3012 RMK AO2
KVTP 091015Z AUTO 09005KT M1/4SM -SN OVC001 M01/M01 A3012 RMK AO2
KVTP 090955Z AUTO 07007KT M1/4SM -SN OVC001 M01/M01 A3012 RMK AO2
KVTP 090935Z AUTO 07007KT M1/4SM -SN OVC001 M01/M01 A3011 RMK AO2
KVTP 090915Z AUTO 08005KT M1/4SM FZFG OVC001 M01/M01 A3010 RMK AO2